Time;durP1;ratioP1;P1;durP2;ratioP2;P2;SDS_P1;SDS_P2;PMS_P1;PMS_P2;Temp;Humidity;BMP_temperature;BMP_pressure;BME280_temperature;BME280_humidity;BME280_pressure;Samples;Min_cycle;Max_cycle;Signal;HPM_P1;HPM_P2
2021/04/11 00:00:44;;;;;;;9.28;4.30;;;;;;;8.04;51.16;96816.06;1733291;82;21134;-87
2021/04/11 00:03:17;;;;;;;9.23;4.75;;;;;;;7.97;51.88;96812.84;1727547;82;21096;-87
2021/04/11 00:05:45;;;;;;;8.08;4.55;;;;;;;7.80;52.48;96808.80;1732954;82;21162;-87
2021/04/11 00:08:15;;;;;;;7.25;4.05;;;;;;;7.74;52.57;96810.59;1730641;82;21677;-87
2021/04/11 00:10:47;;;;;;;8.65;4.62;;;;;;;7.71;53.02;96804.52;1731164;82;21178;-87
2021/04/11 00:13:22;;;;;;;6.87;3.77;;;;;;;7.69;52.98;96796.06;1735148;82;21160;-87
2021/04/11 00:15:50;;;;;;;8.80;3.25;;;;;;;7.70;53.14;96801.08;1729761;82;21272;-87
2021/04/11 00:18:17;;;;;;;8.13;4.28;;;;;;;7.77;53.00;96789.52;1727823;82;21184;-87
2021/04/11 00:20:45;;;;;;;8.53;4.47;;;;;;;7.77;52.97;96795.59;1728034;82;21185;-86
2021/04/11 00:23:13;;;;;;;10.55;4.78;;;;;;;7.78;52.93;96795.06;1717444;82;21150;-87
2021/04/11 00:25:42;;;;;;;7.35;3.47;;;;;;;7.81;52.48;96795.88;1723564;82;21289;-87
2021/04/11 00:28:12;;;;;;;7.45;3.92;;;;;;;7.85;52.55;96786.38;1727075;82;21633;-87
2021/04/11 00:30:40;;;;;;;;;;;;;;;7.89;52.92;96784.84;1729347;82;21155;-87
2021/04/11 00:33:10;;;;;;;8.78;4.40;;;;;;;7.84;52.77;96787.44;1739534;81;20116;-87
2021/04/11 00:35:41;;;;;;;8.00;3.60;;;;;;;7.83;52.40;96791.13;1718518;82;21173;-86
2021/04/11 00:38:07;;;;;;;7.30;3.50;;;;;;;7.81;52.39;96787.95;1737922;81;21142;-87
2021/04/11 00:40:37;;;;;;;6.87;3.42;;;;;;;7.82;52.33;96789.54;1723634;81;21649;-87
2021/04/11 00:43:09;;;;;;;5.72;3.62;;;;;;;7.84;52.16;96790.87;1692529;84;21170;-87
2021/04/11 00:45:51;;;;;;;5.78;3.55;;;;;;;7.89;51.88;96789.59;1730925;81;21144;-87
2021/04/11 00:48:21;;;;;;;7.35;3.55;;;;;;;7.89;51.90;96787.48;1728054;82;21143;-87
2021/04/11 00:51:02;;;;;;;6.83;3.60;;;;;;;7.88;51.91;96789.33;1733330;82;21173;-86
2021/04/11 00:53:30;;;;;;;6.50;3.30;;;;;;;7.86;51.83;96785.33;1719316;82;21077;-86
2021/04/11 00:55:57;;;;;;;7.80;3.83;;;;;;;7.81;51.78;96786.63;1731733;82;21172;-86
2021/04/11 00:58:27;;;;;;;8.55;4.35;;;;;;;7.73;51.86;96782.09;1730481;82;21162;-86
2021/04/11 01:00:55;;;;;;;7.65;4.00;;;;;;;7.72;51.95;96774.44;1729862;82;21158;-87
2021/04/11 01:03:27;;;;;;;5.90;3.77;;;;;;;7.66;52.23;96774.94;1722861;82;21149;-86
2021/04/11 01:05:56;;;;;;;8.43;3.55;;;;;;;7.60;52.71;96776.47;1736631;81;21139;-86
2021/04/11 01:08:28;;;;;;;9.20;4.15;;;;;;;7.64;52.60;96777.57;1731802;82;21169;-86
2021/04/11 01:11:10;;;;;;;6.67;4.05;;;;;;;7.67;52.52;96773.89;1726946;82;21142;-86
2021/04/11 01:13:42;;;;;;;7.53;4.17;;;;;;;7.63;52.40;96771.50;1726053;82;21143;-86
2021/04/11 01:16:12;;;;;;;8.48;4.12;;;;;;;7.55;52.56;96768.01;1720205;82;21154;-86
2021/04/11 01:18:41;;;;;;;7.37;4.65;;;;;;;7.42;52.55;96766.61;1730276;82;21154;-86
2021/04/11 01:21:20;;;;;;;10.00;4.72;;;;;;;7.38;52.66;96760.78;1728965;82;21236;-87
2021/04/11 01:24:01;;;;;;;9.53;4.75;;;;;;;7.31;52.95;96751.75;1727040;83;21135;-87
2021/04/11 01:26:29;;;;;;;8.85;4.50;;;;;;;7.20;53.06;96746.16;1733438;81;21495;-87
2021/04/11 01:28:56;;;;;;;10.80;4.50;;;;;;;7.09;53.26;96747.92;1727125;83;21176;-86
2021/04/11 01:31:23;;;;;;;8.70;4.28;;;;;;;7.00;53.35;96744.14;1707779;83;21448;-87
2021/04/11 01:33:53;;;;;;;9.63;4.60;;;;;;;6.93;53.86;96746.21;1723434;83;21104;-87
2021/04/11 01:36:24;;;;;;;9.45;5.42;;;;;;;6.76;55.21;96746.86;1729465;81;21159;-86
2021/04/11 01:38:53;;;;;;;6.80;4.55;;;;;;;6.54;55.49;96754.28;1726185;81;21139;-87
2021/04/11 01:41:40;;;;;;;10.13;5.08;;;;;;;6.45;56.27;96751.81;1731398;82;21636;-87
2021/04/11 01:44:11;;;;;;;8.23;4.47;;;;;;;6.31;56.28;96757.19;1738151;82;21524;-87
2021/04/11 01:46:39;;;;;;;8.90;4.15;;;;;;;6.22;56.97;96763.95;1737971;82;21147;-87
2021/04/11 01:49:07;;;;;;;8.23;4.20;;;;;;;6.32;57.16;96756.14;1728972;82;21488;-86
2021/04/11 01:51:42;;;;;;;6.90;3.95;;;;;;;6.37;57.32;96759.38;1737378;82;21163;-87
2021/04/11 01:54:13;;;;;;;7.08;3.95;;;;;;;6.35;56.69;96757.52;1736940;82;21151;-87
2021/04/11 01:56:44;;;;;;;8.28;4.40;;;;;;;6.34;57.02;96761.98;1728411;82;21143;-87
2021/04/11 01:59:18;;;;;;;11.70;4.70;;;;;;;6.36;56.69;96755.95;1738205;82;21161;-87
2021/04/11 02:01:49;;;;;;;7.95;4.60;;;;;;;6.38;56.83;96757.02;1738730;82;21143;-86
2021/04/11 02:04:17;;;;;;;6.80;4.12;;;;;;;6.29;56.87;96762.44;1738765;82;21118;-87
2021/04/11 02:06:49;;;;;;;9.13;4.12;;;;;;;6.17;56.94;96765.98;1738882;82;21498;-87
2021/04/11 02:09:25;;;;;;;7.25;4.12;;;;;;;6.09;57.65;96765.12;1736798;82;21112;-86
2021/04/11 02:11:53;;;;;;;8.48;4.50;;;;;;;5.90;59.11;96769.87;1738231;81;21220;-87
2021/04/11 02:14:21;;;;;;;8.73;4.22;;;;;;;5.61;60.37;96768.41;1719437;82;21507;-86
2021/04/11 02:16:48;;;;;;;8.25;4.45;;;;;;;5.29;61.22;96757.70;1735582;82;21175;-86
2021/04/11 02:19:21;;;;;;;10.95;5.15;;;;;;;5.16;61.54;96768.02;1728533;82;21530;-86
2021/04/11 02:21:53;;;;;;;7.35;3.40;;;;;;;5.09;61.26;96778.43;1729836;82;21476;-87
2021/04/11 02:24:21;;;;;;;7.20;3.70;;;;;;;5.20;62.69;96770.95;1716771;82;21118;-86
2021/04/11 02:26:49;;;;;;;5.15;3.22;;;;;;;5.28;62.58;96763.48;1709738;82;21158;-86
2021/04/11 02:29:21;;;;;;;8.25;4.28;;;;;;;5.34;62.33;96768.28;1727932;82;21637;-87
2021/04/11 02:31:49;;;;;;;8.03;4.67;;;;;;;5.35;61.79;96774.64;1729228;82;21103;-86
2021/04/11 02:34:33;;;;;;;7.97;4.03;;;;;;;5.27;61.62;96773.72;1737466;82;21131;-86
2021/04/11 02:37:20;;;;;;;8.60;4.22;;;;;;;5.25;61.53;96773.16;1738153;82;21099;-87
2021/04/11 02:39:48;;;;;;;11.10;4.37;;;;;;;5.33;61.40;96770.11;1717944;82;21121;-87
2021/04/11 02:42:26;;;;;;;6.58;3.80;;;;;;;5.39;61.46;96770.20;1734458;82;21131;-87
2021/04/11 02:44:58;;;;;;;7.53;3.80;;;;;;;5.45;61.54;96771.86;1726080;82;21507;-87
2021/04/11 02:47:25;;;;;;;7.05;3.33;;;;;;;5.44;61.54;96771.06;1737739;82;21491;-87
2021/04/11 02:49:53;;;;;;;5.62;3.85;;;;;;;5.53;61.77;96769.63;1737522;82;21159;-87
2021/04/11 02:52:29;;;;;;;8.58;4.60;;;;;;;5.61;61.27;96772.34;1720816;82;21111;-87
2021/04/11 02:54:59;;;;;;;8.80;4.72;;;;;;;5.65;60.72;96776.11;1737479;82;21147;-87
2021/04/11 02:57:28;;;;;;;12.35;4.75;;;;;;;5.64;60.43;96768.73;1735962;82;21134;-86
2021/04/11 02:59:56;;;;;;;12.90;5.05;;;;;;;5.68;60.64;96768.25;1732987;82;21567;-87
2021/04/11 03:02:24;;;;;;;7.15;3.77;;;;;;;5.68;60.42;96769.05;1736667;82;21135;-87
2021/04/11 03:04:55;;;;;;;7.28;4.35;;;;;;;5.73;60.76;96767.78;1737657;82;21475;-87
2021/04/11 03:07:42;;;;;;;8.03;4.53;;;;;;;5.78;60.74;96775.76;1736437;82;21134;-87
2021/04/11 03:10:18;;;;;;;7.67;4.33;;;;;;;5.80;60.20;96774.99;1736425;82;21124;-86
2021/04/11 03:12:48;;;;;;;9.93;4.05;;;;;;;5.77;60.13;96762.34;1729926;82;21130;-86
2021/04/11 03:15:16;;;;;;;7.97;4.10;;;;;;;5.80;60.10;96763.67;1736126;82;21537;-87
2021/04/11 03:17:45;;;;;;;12.28;3.62;;;;;;;5.84;60.06;96762.14;1707573;82;21103;-86
2021/04/11 03:20:24;;;;;;;9.10;4.00;;;;;;;5.88;60.15;96766.66;1711645;81;21175;-86
2021/04/11 03:22:53;;;;;;;8.55;4.15;;;;;;;5.91;59.91;96758.83;1731353;82;21165;-86
2021/04/11 03:25:21;;;;;;;7.67;4.30;;;;;;;5.95;59.53;96769.95;1724430;82;21452;-87
2021/04/11 03:28:18;;;;;;;9.85;4.37;;;;;;;5.90;59.29;96764.61;1737317;82;21459;-86
2021/04/11 03:31:04;;;;;;;6.75;4.28;;;;;;;5.85;59.26;96760.58;1724875;82;21147;-86
2021/04/11 03:33:39;;;;;;;10.50;4.20;;;;;;;5.79;59.30;96762.88;1737742;82;21476;-87
2021/04/11 03:36:10;;;;;;;8.88;4.60;;;;;;;5.72;59.44;96766.19;1726794;82;21162;-87
2021/04/11 03:38:39;;;;;;;9.23;4.95;;;;;;;5.68;59.29;96770.36;1732580;82;21156;-87
2021/04/11 03:41:09;;;;;;;8.53;4.67;;;;;;;5.61;59.13;96769.72;1719528;82;21151;-87
2021/04/11 03:43:53;;;;;;;7.40;4.53;;;;;;;5.56;59.17;96773.08;1735116;82;21156;-88
2021/04/11 03:46:46;;;;;;;9.20;4.80;;;;;;;5.53;59.38;96762.27;1737565;81;21254;-87
2021/04/11 03:52:10;;;;;;;8.68;4.83;;;;;;;5.42;59.97;96765.26;1833641;77;23099;-87
2021/04/11 03:54:41;;;;;;;9.85;5.03;;;;;;;5.30;59.67;96760.61;1810160;78;21468;-87
2021/04/11 03:57:20;;;;;;;8.75;4.80;;;;;;;5.21;59.63;96760.23;1816767;78;21172;-87
2021/04/11 03:59:52;;;;;;;8.25;4.60;;;;;;;5.21;59.83;96751.55;1813148;78;21107;-87
2021/04/11 04:02:23;;;;;;;10.55;5.40;;;;;;;5.19;60.39;96745.20;1739722;81;21110;-87
2021/04/11 04:04:52;;;;;;;8.00;4.75;;;;;;;5.20;60.77;96752.56;1799329;78;21126;-86
2021/04/11 04:07:23;;;;;;;7.97;4.53;;;;;;;5.16;60.75;96748.31;1761838;80;21114;-87
2021/04/11 04:10:01;;;;;;;8.33;4.70;;;;;;;5.15;60.81;96749.34;1770125;79;21151;-87
2021/04/11 04:12:49;;;;;;;7.87;4.50;;;;;;;5.22;60.68;96736.86;1759410;81;21129;-87
2021/04/11 04:15:57;;;;;;;8.38;4.05;;;;;;;5.27;60.59;96743.48;1773166;79;21107;-87
2021/04/11 04:18:46;;;;;;;9.08;5.08;;;;;;;5.24;60.53;96748.44;1768287;79;21176;-87
2021/04/11 04:21:44;;;;;;;9.10;4.75;;;;;;;5.00;60.71;96760.94;1727657;81;21531;-87
2021/04/11 04:24:42;;;;;;;9.43;4.87;;;;;;;4.73;62.11;96754.98;1809424;78;21150;-87
2021/04/11 04:27:35;;;;;;;7.67;4.17;;;;;;;4.78;62.57;96763.45;1804237;78;21527;-87
2021/04/11 04:30:29;;;;;;;9.50;4.45;;;;;;;5.56;62.21;96761.77;1765510;80;21463;-86
2021/04/11 04:33:21;;;;;;;5.75;3.50;;;;;;;6.84;60.78;96754.30;1735140;80;21136;-87
2021/04/11 04:36:26;;;;;;;7.75;4.37;;;;;;;7.63;58.89;96758.31;1745882;81;21126;-87
2021/04/11 04:39:24;;;;;;;10.13;5.05;;;;;;;8.13;56.69;96759.59;1780409;79;21120;-87
2021/04/11 04:42:21;;;;;;;8.63;4.47;;;;;;;8.77;55.03;96751.34;1768403;79;21258;-87
2021/04/11 04:45:11;;;;;;;6.80;4.17;;;;;;;9.48;53.71;96738.09;1775840;79;21085;-87
2021/04/11 04:47:55;;;;;;;5.35;3.45;;;;;;;10.28;53.49;96743.96;1792084;79;21117;-87
2021/04/11 04:50:28;;;;;;;6.60;3.80;;;;;;;11.70;53.55;96736.24;1783064;79;21314;-86
2021/04/11 04:53:29;;;;;;;7.22;3.37;;;;;;;12.98;52.08;96726.88;1770799;79;21273;-86
2021/04/11 04:56:00;;;;;;;7.37;3.98;;;;;;;13.68;49.61;96722.54;1776716;79;21314;-87
2021/04/11 04:58:56;;;;;;;5.92;3.55;;;;;;;13.98;47.73;96720.62;1787665;79;21255;-87
2021/04/11 05:01:28;;;;;;;7.03;3.27;;;;;;;13.89;47.15;96710.39;1782241;79;21121;-87
2021/04/11 05:04:02;;;;;;;7.25;3.70;;;;;;;13.31;44.78;96714.92;1783664;79;21124;-88
2021/04/11 05:06:43;;;;;;;6.75;3.25;;;;;;;12.15;45.84;96722.99;1772121;79;21152;-88
2021/04/11 05:09:41;;;;;;;7.15;3.62;;;;;;;12.15;46.57;96726.19;1769403;81;21215;-88
2021/04/11 05:12:19;;;;;;;5.83;3.40;;;;;;;13.48;45.75;96721.02;1800586;78;21618;-87
2021/04/11 05:15:03;;;;;;;7.72;3.65;;;;;;;14.84;45.00;96722.01;1776234;80;21148;-87
2021/04/11 05:17:38;;;;;;;6.15;3.30;;;;;;;16.14;43.90;96726.73;1772835;80;21106;-87
2021/04/11 05:20:16;;;;;;;6.78;3.62;;;;;;;17.39;41.48;96735.23;1766965;80;21591;-87
2021/04/11 05:23:18;;;;;;;5.70;3.45;;;;;;;18.19;41.73;96724.72;1789846;80;21619;-87
2021/04/11 05:26:06;;;;;;;7.10;3.80;;;;;;;19.45;40.36;96718.79;1801788;78;21140;-86
2021/04/11 05:28:44;;;;;;;8.85;4.05;;;;;;;20.42;39.33;96719.47;1765964;80;21136;-87
2021/04/11 05:31:19;;;;;;;6.08;3.70;;;;;;;21.01;36.65;96718.87;1776327;80;21138;-87
2021/04/11 05:33:47;;;;;;;7.87;3.90;;;;;;;21.79;36.56;96714.20;1806156;78;21154;-87
2021/04/11 05:36:35;;;;;;;7.10;3.30;;;;;;;22.85;35.71;96704.89;1770425;80;21151;-87
2021/04/11 05:39:32;;;;;;;7.75;3.40;;;;;;;23.61;34.32;96708.10;1792954;78;21126;-87
2021/04/11 05:42:23;;;;;;;6.17;3.10;;;;;;;24.32;33.58;96701.72;1765902;80;21162;-87
2021/04/11 05:45:10;;;;;;;5.15;2.75;;;;;;;25.19;32.41;96698.40;1797422;78;21485;-87
2021/04/11 05:48:00;;;;;;;5.42;3.00;;;;;;;25.55;31.39;96702.86;1813986;78;21488;-87
2021/04/11 05:51:01;;;;;;;3.58;2.60;;;;;;;26.13;31.15;96709.01;1811349;78;21136;-88
2021/04/11 05:53:46;;;;;;;;;;;;;;;26.73;30.43;96701.25;1811549;78;21173;-88
2021/04/11 05:56:21;;;;;;;12.47;7.55;;;;;;;26.58;27.09;96708.55;1804533;78;20174;-87
2021/04/11 06:01:56;;;;;;;8.78;4.37;;;;;;;26.45;27.79;96696.44;1786968;78;23416;-85
2021/04/11 06:04:52;;;;;;;9.05;4.17;;;;;;;26.61;27.54;96692.86;1720092;82;21636;-87
2021/04/11 06:07:27;;;;;;;7.00;3.70;;;;;;;27.24;27.59;96697.61;1702040;83;21507;-87
2021/04/11 06:10:14;;;;;;;8.15;3.83;;;;;;;27.68;26.97;96692.47;1723613;83;21133;-88
2021/04/11 06:13:13;;;;;;;4.33;2.60;;;;;;;28.34;26.97;96693.66;1701039;83;21149;-88
2021/04/11 06:15:48;;;;;;;2.67;2.27;;;;;;;29.38;25.39;96692.70;1705195;83;21134;-88
2021/04/11 06:18:15;;;;;;;3.90;2.15;;;;;;;29.18;24.58;96691.66;1705416;83;21151;-88
2021/04/11 06:20:46;;;;;;;3.75;2.27;;;;;;;29.24;24.12;96692.20;1722427;82;21496;-88
2021/04/11 06:23:30;;;;;;;5.65;1.90;;;;;;;29.69;23.14;96701.13;1718369;82;21156;-87
2021/04/11 06:26:14;;;;;;;5.10;2.77;;;;;;;29.33;22.28;96700.55;1731885;82;21098;-87
2021/04/11 06:29:15;;;;;;;4.58;3.00;;;;;;;29.23;23.70;96697.47;1736367;82;21178;-88
2021/04/11 06:32:05;;;;;;;5.90;2.98;;;;;;;29.73;22.90;96703.27;1719273;83;21209;-88
2021/04/11 06:34:41;;;;;;;3.05;2.42;;;;;;;28.59;21.65;96699.65;1724352;82;21384;-88
2021/04/11 06:37:13;;;;;;;5.65;3.12;;;;;;;29.15;22.26;96695.97;1721522;83;21153;-88
2021/04/11 06:39:44;;;;;;;6.03;2.70;;;;;;;29.55;22.63;96695.94;1675085;82;21170;-88
2021/04/11 06:42:38;;;;;;;5.12;2.80;;;;;;;30.14;22.61;96697.30;1723993;83;21515;-88
2021/04/11 06:45:23;;;;;;;5.40;2.80;;;;;;;30.55;22.29;96687.54;1719158;82;21181;-88
2021/04/11 06:48:08;;;;;;;4.70;2.58;;;;;;;31.22;21.83;96685.99;1728941;82;21125;-88
2021/04/11 06:51:14;;;;;;;4.58;2.25;;;;;;;31.40;20.51;96683.03;1716910;83;21505;-87
2021/04/11 06:54:11;;;;;;;4.17;2.67;;;;;;;31.40;20.64;96673.44;1717763;82;21282;-88
2021/04/11 06:56:46;;;;;;;4.25;2.35;;;;;;;32.13;21.47;96672.70;1705425;82;21088;-88
2021/04/11 06:59:31;;;;;;;4.28;2.15;;;;;;;32.79;20.37;96670.50;1722734;82;21184;-87
2021/04/11 07:02:38;;;;;;;2.90;1.90;;;;;;;33.02;19.45;96666.34;1698677;83;21152;-89
2021/04/11 07:05:26;;;;;;;4.08;2.12;;;;;;;33.12;19.87;96674.19;1694436;83;21158;-87
2021/04/11 07:08:22;;;;;;;5.90;2.17;;;;;;;33.85;19.72;96675.73;1685275;83;21156;-89
2021/04/11 07:11:19;;;;;;;4.80;2.05;;;;;;;34.21;18.88;96685.26;1706139;83;21501;-87
2021/04/11 07:14:29;;;;;;;3.75;2.20;;;;;;;33.65;18.42;96671.66;1704243;83;21290;-87
2021/04/11 07:17:32;;;;;;;4.67;2.10;;;;;;;33.73;19.22;96676.98;1706113;83;21188;-88
2021/04/11 07:20:31;;;;;;;2.75;1.87;;;;;;;35.12;18.93;96675.54;1696094;83;21525;-88
2021/04/11 07:23:24;;;;;;;3.77;2.10;;;;;;;36.10;17.16;96659.11;1651653;85;21154;-88
2021/04/11 07:26:34;;;;;;;3.95;1.82;;;;;;;36.19;17.86;96657.05;1803397;78;23133;-88
2021/04/11 07:29:41;;;;;;;5.25;3.08;;;;;;;37.01;17.39;96655.55;1816894;78;23021;-89
2021/04/11 07:32:22;;;;;;;3.35;2.10;;;;;;;37.09;17.01;96658.98;1743099;82;21149;-90
2021/04/11 07:35:04;;;;;;;2.85;1.70;;;;;;;37.62;16.89;96658.94;1750346;82;21524;-90
2021/04/11 07:38:22;;;;;;;3.40;1.98;;;;;;;38.41;16.51;96666.81;1743921;82;21485;-89
2021/04/11 07:41:35;;;;;;;1.85;1.60;;;;;;;38.07;14.09;96667.23;1749751;82;21174;-88
2021/04/11 07:44:42;;;;;;;2.83;1.72;;;;;;;37.08;13.85;96668.50;1744447;81;21136;-90
2021/04/11 07:47:32;;;;;;;2.60;1.75;;;;;;;36.83;15.90;96665.28;1753909;82;21560;-90
2021/04/11 07:50:54;;;;;;;3.12;1.37;;;;;;;37.93;15.43;96665.81;1734141;82;21155;-89
2021/04/11 07:53:39;;;;;;;2.50;1.80;;;;;;;38.58;15.75;96665.30;1727951;82;21274;-90
2021/04/11 07:56:50;;;;;;;3.42;1.77;;;;;;;37.60;13.32;96659.25;1789016;79;23039;-91
2021/04/11 07:59:49;;;;;;;3.75;2.02;;;;;;;36.34;14.62;96667.80;1740474;82;21122;-90
2021/04/11 08:02:52;;;;;;;2.83;1.50;;;;;;;37.63;15.60;96666.02;1707869;83;21181;-90
2021/04/11 08:05:58;;;;;;;2.55;1.75;;;;;;;39.16;15.48;96664.33;1705465;83;21485;-90
2021/04/11 08:08:42;;;;;;;1.95;1.55;;;;;;;38.71;14.08;96668.70;1715075;83;21163;-89
2021/04/11 08:11:38;;;;;;;2.30;1.50;;;;;;;37.34;14.51;96668.36;1717085;83;21187;-90
2021/04/11 08:14:11;;;;;;;3.12;1.60;;;;;;;37.73;14.42;96669.59;1703537;83;21224;-89
2021/04/11 08:16:46;;;;;;;2.95;1.77;;;;;;;37.91;13.15;96666.12;1722596;83;21492;-89
2021/04/11 08:19:47;;;;;;;2.40;1.40;;;;;;;36.64;14.34;96663.59;1704884;83;21120;-89
2021/04/11 08:22:47;;;;;;;3.83;1.47;;;;;;;37.57;14.31;96672.59;1677851;83;21501;-88
2021/04/11 08:25:42;;;;;;;2.40;1.45;;;;;;;37.44;13.33;96663.01;1707486;83;21183;-89
2021/04/11 08:28:35;;;;;;;2.62;1.72;;;;;;;34.93;12.28;96667.63;1716337;83;21144;-89
2021/04/11 08:31:35;;;;;;;2.98;1.95;;;;;;;32.28;14.27;96652.09;1716151;83;21137;-87
2021/04/11 08:34:26;;;;;;;3.37;1.60;;;;;;;31.95;14.62;96651.64;1697004;83;21127;-89
2021/04/11 08:37:27;;;;;;;2.33;1.57;;;;;;;31.83;15.82;96664.78;1722953;83;21097;-89
2021/04/11 08:40:05;;;;;;;3.40;1.70;;;;;;;32.36;14.05;96665.83;1715532;83;21161;-89
2021/04/11 08:42:46;;;;;;;3.05;1.40;;;;;;;31.00;15.15;96662.20;1712374;83;21492;-87
2021/04/11 08:45:31;;;;;;;4.03;1.57;;;;;;;31.48;15.44;96659.80;1707512;83;21521;-89
2021/04/11 08:48:45;;;;;;;3.02;1.67;;;;;;;30.96;15.12;96667.70;1705857;83;21140;-89
2021/04/11 08:51:24;;;;;;;4.67;1.70;;;;;;;29.47;16.21;96663.03;1715454;83;21158;-88
2021/04/11 08:54:12;;;;;;;5.00;1.55;;;;;;;27.96;17.13;96672.05;1713166;83;21101;-87
2021/04/11 08:56:48;;;;;;;4.45;2.20;;;;;;;27.51;18.08;96667.52;1700192;83;21125;-88
2021/04/11 08:59:33;;;;;;;3.85;1.77;;;;;;;27.70;17.58;96671.84;1720353;83;21496;-90
2021/04/11 09:02:26;;;;;;;2.83;1.70;;;;;;;26.90;18.12;96662.48;1712812;83;21469;-89
2021/04/11 09:05:35;;;;;;;4.00;1.92;;;;;;;26.34;18.59;96668.41;1711158;83;21145;-88
2021/04/11 09:08:19;;;;;;;3.15;1.62;;;;;;;24.54;19.74;96659.45;1718692;83;21481;-86
2021/04/11 09:10:57;;;;;;;3.15;1.50;;;;;;;23.24;21.44;96674.56;1703857;83;21478;-87
2021/04/11 09:13:59;;;;;;;4.40;1.87;;;;;;;23.71;21.84;96672.11;1713106;83;21451;-86
2021/04/11 09:17:03;;;;;;;2.92;1.57;;;;;;;24.11;21.40;96669.66;1700100;83;21340;-86
2021/04/11 09:19:47;;;;;;;4.17;1.75;;;;;;;22.85;22.15;96669.17;1695256;83;21132;-89
2021/04/11 09:22:50;;;;;;;2.47;1.42;;;;;;;22.73;22.35;96668.71;1706996;83;21193;-87
2021/04/11 09:25:27;;;;;;;3.02;1.45;;;;;;;22.77;22.00;96654.69;1699383;83;21477;-89
2021/04/11 09:28:17;;;;;;;5.62;1.90;;;;;;;22.83;22.80;96655.23;1707862;83;21146;-87
2021/04/11 09:31:22;;;;;;;2.67;1.65;;;;;;;22.44;22.32;96657.88;1703675;83;21197;-90
2021/04/11 09:34:33;;;;;;;2.85;1.30;;;;;;;21.91;22.71;96659.35;1692619;83;21453;-88
2021/04/11 09:37:27;;;;;;;3.70;1.25;;;;;;;21.98;22.87;96658.75;1712284;83;21317;-89
2021/04/11 09:40:19;;;;;;;3.47;1.42;;;;;;;21.66;23.32;96658.75;1715781;83;21137;-88
2021/04/11 09:43:27;;;;;;;2.67;1.22;;;;;;;21.99;23.52;96661.09;1696489;83;21551;-88
2021/04/11 09:46:08;;;;;;;3.80;1.55;;;;;;;21.10;23.26;96656.14;1704931;83;21110;-90
2021/04/11 09:49:12;;;;;;;5.25;1.60;;;;;;;20.54;24.38;96662.08;1709414;83;21469;-89
2021/04/11 09:52:16;;;;;;;4.70;1.25;;;;;;;20.39;24.57;96650.08;1703198;83;21634;-88
2021/04/11 09:55:06;;;;;;;2.33;1.55;;;;;;;20.30;24.34;96650.80;1704411;83;21498;-88
2021/04/11 09:58:03;;;;;;;2.77;1.50;;;;;;;20.25;24.85;96644.28;1711637;83;21458;-88
2021/04/11 10:00:42;;;;;;;2.25;1.47;;;;;;;20.53;24.68;96647.05;1710950;83;21219;-89
2021/04/11 10:03:33;;;;;;;4.05;1.75;;;;;;;20.21;25.45;96648.78;1706822;83;21183;-86
2021/04/11 10:06:40;;;;;;;4.47;1.72;;;;;;;19.99;25.58;96642.77;1697246;83;21101;-86
2021/04/11 10:09:43;;;;;;;3.90;1.50;;;;;;;19.98;25.46;96636.34;1695860;83;21682;-87
2021/04/11 10:12:15;;;;;;;2.15;1.17;;;;;;;20.12;26.37;96626.02;1698528;83;21659;-88
2021/04/11 10:15:00;;;;;;;3.30;1.32;;;;;;;20.61;24.71;96632.11;1694656;83;21133;-87
2021/04/11 10:17:55;;;;;;;3.87;1.60;;;;;;;20.35;24.78;96620.94;1710036;83;21143;-91
2021/04/11 10:20:47;;;;;;;2.62;1.20;;;;;;;20.23;25.37;96627.69;1665175;85;21110;-88
2021/04/11 10:23:56;;;;;;;4.20;1.50;;;;;;;20.18;25.52;96626.02;1659251;85;21525;-92
2021/04/11 10:26:49;;;;;;;2.47;1.50;;;;;;;20.41;26.10;96634.39;1665482;85;21159;-92
2021/04/11 10:29:20;;;;;;;2.35;1.17;;;;;;;20.47;25.38;96634.95;1665360;85;21188;-90
2021/04/11 10:32:28;;;;;;;1.77;1.27;;;;;;;20.37;24.45;96634.27;1671437;85;21525;-90
2021/04/11 10:35:07;;;;;;;3.55;1.30;;;;;;;19.96;25.75;96635.34;1658355;85;21180;-93
2021/04/11 10:37:42;;;;;;;3.25;1.77;;;;;;;19.90;26.04;96635.36;1666659;85;21145;-94
2021/04/11 10:40:43;;;;;;;3.30;1.65;;;;;;;19.97;26.43;96641.51;1659434;85;21242;-91
2021/04/11 10:43:27;;;;;;;2.80;1.37;;;;;;;19.58;26.05;96645.68;1654449;85;21180;-91
2021/04/11 10:46:05;;;;;;;2.50;1.17;;;;;;;19.32;27.12;96633.29;1681711;85;21510;-89
2021/04/11 10:49:28;;;;;;;3.72;1.45;;;;;;;19.58;26.21;96644.34;1682320;85;21136;-92
2021/04/11 10:52:37;;;;;;;2.67;1.42;;;;;;;19.65;26.40;96632.45;1644521;86;21147;-92
2021/04/11 10:55:41;;;;;;;1.30;1.20;;;;;;;19.78;26.86;96631.33;1614751;86;21505;-92
2021/04/11 10:58:50;;;;;;;2.75;1.50;;;;;;;20.16;27.03;96636.34;1689223;84;21296;-90
2021/04/11 11:01:37;;;;;;;3.27;1.37;;;;;;;20.05;26.31;96608.33;1665022;85;21203;-92
2021/04/11 11:04:43;;;;;;;2.20;0.80;;;;;;;19.76;26.71;96633.02;1665582;85;21474;-91
2021/04/11 11:07:34;;;;;;;3.25;1.17;;;;;;;19.90;27.23;96629.20;1665034;85;21643;-91
2021/04/11 11:10:51;;;;;;;2.65;0.70;;;;;;;19.39;26.75;96631.38;1672285;85;21175;-92
2021/04/11 11:13:33;;;;;;;5.58;2.37;;;;;;;19.14;26.99;96623.30;1677654;85;21244;-92
2021/04/11 11:16:43;;;;;;;2.58;1.00;;;;;;;18.76;28.33;96634.25;1661960;85;21549;-93
2021/04/11 11:19:49;;;;;;;;;;;;;;;18.70;28.00;96627.50;1671070;85;21122;-90
2021/04/11 11:22:27;;;;;;;3.02;1.17;;;;;;;18.16;28.95;96649.44;1662742;85;20477;-88
2021/04/11 11:25:25;;;;;;;3.02;1.32;;;;;;;18.17;29.14;96657.19;1691995;84;21141;-93
2021/04/11 11:28:34;;;;;;;2.00;0.90;;;;;;;18.10;29.48;96647.50;1666381;85;21526;-92
2021/04/11 11:31:36;;;;;;;2.15;1.00;;;;;;;17.58;30.51;96654.99;1671469;85;21518;-90
2021/04/11 11:34:33;;;;;;;1.75;1.02;;;;;;;17.35;31.03;96668.65;1654976;85;21107;-94
2021/04/11 11:37:34;;;;;;;2.25;1.10;;;;;;;17.61;31.22;96667.78;1652599;85;21181;-95
2021/04/11 11:40:15;;;;;;;2.15;1.30;;;;;;;17.95;31.33;96664.17;1669172;85;21165;-94
2021/04/11 11:43:20;;;;;;;3.65;0.90;;;;;;;18.39;31.35;96658.20;1670105;85;21268;-95
2021/04/11 11:46:15;;;;;;;3.05;1.20;;;;;;;18.66;30.36;96673.59;1673116;85;21154;-95
2021/04/11 11:49:09;;;;;;;2.72;1.25;;;;;;;18.51;30.14;96670.13;1667796;85;21263;-95
2021/04/11 11:51:58;;;;;;;1.67;0.85;;;;;;;18.22;29.95;96673.08;1658706;85;21334;-93
2021/04/11 11:54:42;;;;;;;3.17;1.20;;;;;;;17.99;30.15;96659.72;1662542;85;21209;-90
2021/04/11 11:57:48;;;;;;;2.45;1.00;;;;;;;17.94;30.49;96684.84;1658860;86;21233;-92
2021/04/11 12:00:29;;;;;;;1.95;0.90;;;;;;;17.82;30.85;96671.33;1653780;86;21171;-94
2021/04/11 12:03:30;;;;;;;1.70;1.00;;;;;;;17.70;31.14;96661.28;1690874;84;21158;-93
2021/04/11 12:06:23;;;;;;;2.73;0.97;;;;;;;17.41;30.97;96677.29;1671446;86;21162;-94
2021/04/11 12:09:02;;;;;;;2.33;0.75;;;;;;;17.19;31.92;96658.22;1669776;85;21552;-95
2021/04/11 12:12:00;;;;;;;4.17;1.22;;;;;;;16.95;31.96;96660.06;1662103;86;21199;-93
2021/04/11 12:14:47;;;;;;;1.00;0.70;;;;;;;16.76;33.03;96682.38;1645661;86;21534;-95
2021/04/11 12:17:35;;;;;;;4.90;1.00;;;;;;;16.66;33.03;96678.64;1667167;85;21147;-94
2021/04/11 12:20:10;;;;;;;1.67;1.00;;;;;;;16.48;33.58;96678.64;1667810;85;21536;-94
2021/04/11 12:22:55;;;;;;;1.95;0.98;;;;;;;16.46;34.56;96677.36;1661395;85;21153;-95
2021/04/11 12:25:27;;;;;;;3.17;0.62;;;;;;;16.50;34.56;96693.83;1650665;85;21150;-93
2021/04/11 12:27:54;;;;;;;1.52;0.80;;;;;;;16.51;34.85;96696.74;1670072;85;21539;-95
2021/04/11 12:30:38;;;;;;;2.40;0.80;;;;;;;16.49;34.84;96696.83;1675136;85;21499;-95
2021/04/11 12:33:22;;;;;;;2.35;0.88;;;;;;;16.52;35.01;96691.63;1670258;85;22330;-92
2021/04/11 12:36:16;;;;;;;1.12;0.70;;;;;;;16.38;35.67;96680.28;1665619;85;21091;-93
2021/04/11 12:39:00;;;;;;;2.58;0.90;;;;;;;16.28;35.94;96700.09;1674750;85;21507;-92
2021/04/11 12:41:50;;;;;;;1.40;0.80;;;;;;;16.22;36.88;96675.94;1677926;85;21131;-93
2021/04/11 12:44:38;;;;;;;1.05;0.70;;;;;;;16.21;36.69;96689.08;1635912;85;21531;-91
2021/04/11 12:47:22;;;;;;;3.20;1.52;;;;;;;16.24;36.77;96680.42;1665763;85;21501;-84
2021/04/11 12:49:54;;;;;;;2.25;0.78;;;;;;;16.14;37.56;96705.33;1673296;85;21159;-92
2021/04/11 12:53:02;;;;;;;2.50;0.53;;;;;;;16.15;37.01;96702.34;1650614;85;21154;-91
2021/04/11 12:55:35;;;;;;;2.30;0.90;;;;;;;16.03;37.55;96681.54;1672491;85;21125;-95
2021/04/11 12:58:26;;;;;;;2.65;0.72;;;;;;;15.92;37.93;96692.31;1677020;85;21129;-91
2021/04/11 13:01:15;;;;;;;;;;;;;;;16.00;37.77;96686.73;1676975;85;21529;-90
2021/04/11 13:04:29;;;;;;;1.50;0.70;;;;;;;16.01;37.85;96687.75;1680544;85;20135;-91